sensor_id;sensor_type;location;lat;lon;timestamp;P1;durP1;ratioP1;P2;durP2;ratioP2
17790;SDS011;9019;48.132;-1.210;2024-02-16T00:00:37;20.10;;;5.03;;
17790;SDS011;9019;48.132;-1.210;2024-02-16T00:03:04;22.83;;;5.00;;
17790;SDS011;9019;48.132;-1.210;2024-02-16T00:05:31;20.40;;;4.40;;
17790;SDS011;9019;48.132;-1.210;2024-02-16T00:07:59;21.17;;;4.57;;
17790;SDS011;9019;48.132;-1.210;2024-02-16T00:10:28;18.83;;;4.83;;
17790;SDS011;9019;48.132;-1.210;2024-02-16T00:12:55;24.20;;;5.23;;
17790;SDS011;9019;48.132;-1.210;2024-02-16T00:15:24;31.13;;;5.37;;
17790;SDS011;9019;48.132;-1.210;2024-02-16T00:17:51;21.20;;;5.23;;
17790;SDS011;9019;48.132;-1.210;2024-02-16T00:20:18;23.03;;;5.40;;
17790;SDS011;9019;48.132;-1.210;2024-02-16T00:22:47;24.87;;;5.20;;
17790;SDS011;9019;48.132;-1.210;2024-02-16T00:25:15;21.90;;;5.00;;
17790;SDS011;9019;48.132;-1.210;2024-02-16T00:27:43;21.40;;;5.40;;
17790;SDS011;9019;48.132;-1.210;2024-02-16T00:30:10;22.17;;;5.60;;
17790;SDS011;9019;48.132;-1.210;2024-02-16T00:32:39;30.00;;;5.40;;
17790;SDS011;9019;48.132;-1.210;2024-02-16T00:35:07;22.40;;;5.60;;
17790;SDS011;9019;48.132;-1.210;2024-02-16T00:37:34;25.00;;;5.23;;
17790;SDS011;9019;48.132;-1.210;2024-02-16T00:40:03;23.00;;;5.27;;
17790;SDS011;9019;48.132;-1.210;2024-02-16T00:42:31;22.83;;;6.17;;
17790;SDS011;9019;48.132;-1.210;2024-02-16T00:44:58;26.23;;;5.80;;
17790;SDS011;9019;48.132;-1.210;2024-02-16T00:47:26;22.13;;;5.43;;
17790;SDS011;9019;48.132;-1.210;2024-02-16T00:49:54;22.17;;;5.40;;
17790;SDS011;9019;48.132;-1.210;2024-02-16T00:52:21;20.67;;;5.80;;
17790;SDS011;9019;48.132;-1.210;2024-02-16T00:54:49;21.87;;;5.60;;
17790;SDS011;9019;48.132;-1.210;2024-02-16T00:57:16;21.53;;;5.23;;
17790;SDS011;9019;48.132;-1.210;2024-02-16T00:59:44;24.67;;;5.83;;
17790;SDS011;9019;48.132;-1.210;2024-02-16T01:02:11;23.93;;;5.80;;
17790;SDS011;9019;48.132;-1.210;2024-02-16T01:04:38;17.97;;;5.50;;
17790;SDS011;9019;48.132;-1.210;2024-02-16T01:07:06;29.03;;;6.17;;
17790;SDS011;9019;48.132;-1.210;2024-02-16T01:09:34;23.47;;;5.67;;
17790;SDS011;9019;48.132;-1.210;2024-02-16T01:12:01;25.53;;;6.23;;
17790;SDS011;9019;48.132;-1.210;2024-02-16T01:14:28;26.53;;;6.50;;
17790;SDS011;9019;48.132;-1.210;2024-02-16T01:16:55;23.00;;;5.73;;
17790;SDS011;9019;48.132;-1.210;2024-02-16T01:19:22;25.77;;;6.00;;
17790;SDS011;9019;48.132;-1.210;2024-02-16T01:21:50;23.43;;;6.00;;
17790;SDS011;9019;48.132;-1.210;2024-02-16T01:24:23;19.40;;;6.07;;
17790;SDS011;9019;48.132;-1.210;2024-02-16T01:26:51;28.30;;;5.93;;
17790;SDS011;9019;48.132;-1.210;2024-02-16T01:29:18;19.50;;;5.73;;
17790;SDS011;9019;48.132;-1.210;2024-02-16T01:31:45;24.17;;;6.07;;
17790;SDS011;9019;48.132;-1.210;2024-02-16T01:34:12;21.87;;;6.07;;
17790;SDS011;9019;48.132;-1.210;2024-02-16T01:36:40;26.63;;;5.47;;
17790;SDS011;9019;48.132;-1.210;2024-02-16T01:39:07;22.97;;;6.03;;
17790;SDS011;9019;48.132;-1.210;2024-02-16T01:41:37;27.10;;;6.57;;
17790;SDS011;9019;48.132;-1.210;2024-02-16T01:44:05;22.43;;;6.80;;
17790;SDS011;9019;48.132;-1.210;2024-02-16T01:46:33;24.53;;;6.73;;
17790;SDS011;9019;48.132;-1.210;2024-02-16T01:49:00;22.40;;;6.90;;
17790;SDS011;9019;48.132;-1.210;2024-02-16T01:51:28;25.23;;;6.83;;
17790;SDS011;9019;48.132;-1.210;2024-02-16T01:53:56;21.57;;;6.17;;
17790;SDS011;9019;48.132;-1.210;2024-02-16T01:56:23;26.90;;;6.40;;
17790;SDS011;9019;48.132;-1.210;2024-02-16T01:58:53;25.53;;;6.87;;
17790;SDS011;9019;48.132;-1.210;2024-02-16T02:01:20;20.93;;;7.03;;
17790;SDS011;9019;48.132;-1.210;2024-02-16T02:03:47;25.47;;;7.00;;
17790;SDS011;9019;48.132;-1.210;2024-02-16T02:06:14;24.33;;;7.10;;
17790;SDS011;9019;48.132;-1.210;2024-02-16T02:08:42;29.23;;;6.97;;
17790;SDS011;9019;48.132;-1.210;2024-02-16T02:11:09;21.20;;;6.53;;
17790;SDS011;9019;48.132;-1.210;2024-02-16T02:13:36;28.60;;;7.67;;
17790;SDS011;9019;48.132;-1.210;2024-02-16T02:16:06;29.50;;;7.50;;
17790;SDS011;9019;48.132;-1.210;2024-02-16T02:18:34;23.60;;;7.03;;
17790;SDS011;9019;48.132;-1.210;2024-02-16T02:21:01;30.70;;;8.03;;
17790;SDS011;9019;48.132;-1.210;2024-02-16T02:23:29;26.17;;;7.70;;
17790;SDS011;9019;48.132;-1.210;2024-02-16T02:25:57;27.00;;;7.57;;
17790;SDS011;9019;48.132;-1.210;2024-02-16T02:28:24;24.37;;;7.87;;
17790;SDS011;9019;48.132;-1.210;2024-02-16T02:30:51;24.20;;;7.53;;
17790;SDS011;9019;48.132;-1.210;2024-02-16T02:33:18;25.43;;;6.87;;
17790;SDS011;9019;48.132;-1.210;2024-02-16T02:35:46;21.60;;;6.80;;
17790;SDS011;9019;48.132;-1.210;2024-02-16T02:38:13;29.10;;;7.23;;
17790;SDS011;9019;48.132;-1.210;2024-02-16T02:40:41;30.13;;;7.30;;
17790;SDS011;9019;48.132;-1.210;2024-02-16T02:43:09;28.83;;;7.63;;
17790;SDS011;9019;48.132;-1.210;2024-02-16T02:45:36;25.60;;;7.23;;
17790;SDS011;9019;48.132;-1.210;2024-02-16T02:48:03;29.37;;;7.83;;
17790;SDS011;9019;48.132;-1.210;2024-02-16T02:50:30;25.80;;;7.50;;
17790;SDS011;9019;48.132;-1.210;2024-02-16T02:52:58;28.70;;;7.20;;
17790;SDS011;9019;48.132;-1.210;2024-02-16T02:55:25;35.00;;;8.13;;
17790;SDS011;9019;48.132;-1.210;2024-02-16T02:57:54;30.90;;;8.10;;
17790;SDS011;9019;48.132;-1.210;2024-02-16T03:00:23;32.10;;;7.77;;
17790;SDS011;9019;48.132;-1.210;2024-02-16T03:02:51;30.87;;;7.87;;
17790;SDS011;9019;48.132;-1.210;2024-02-16T03:05:18;25.43;;;7.40;;
17790;SDS011;9019;48.132;-1.210;2024-02-16T03:07:46;27.23;;;7.77;;
17790;SDS011;9019;48.132;-1.210;2024-02-16T03:10:13;27.47;;;7.60;;
17790;SDS011;9019;48.132;-1.210;2024-02-16T03:12:46;21.47;;;7.30;;
17790;SDS011;9019;48.132;-1.210;2024-02-16T03:15:15;27.40;;;7.60;;
17790;SDS011;9019;48.132;-1.210;2024-02-16T03:17:43;23.67;;;7.07;;
17790;SDS011;9019;48.132;-1.210;2024-02-16T03:20:10;31.80;;;7.43;;
17790;SDS011;9019;48.132;-1.210;2024-02-16T03:22:37;25.83;;;7.73;;
17790;SDS011;9019;48.132;-1.210;2024-02-16T03:25:05;21.80;;;7.57;;
17790;SDS011;9019;48.132;-1.210;2024-02-16T03:27:32;25.00;;;7.60;;
17790;SDS011;9019;48.132;-1.210;2024-02-16T03:29:59;23.87;;;7.10;;
17790;SDS011;9019;48.132;-1.210;2024-02-16T03:32:28;23.30;;;7.13;;
17790;SDS011;9019;48.132;-1.210;2024-02-16T03:34:56;21.37;;;7.50;;
17790;SDS011;9019;48.132;-1.210;2024-02-16T03:37:24;20.07;;;7.43;;
17790;SDS011;9019;48.132;-1.210;2024-02-16T03:39:51;19.00;;;6.90;;
17790;SDS011;9019;48.132;-1.210;2024-02-16T03:42:18;21.60;;;7.40;;
17790;SDS011;9019;48.132;-1.210;2024-02-16T03:44:46;15.93;;;6.90;;
17790;SDS011;9019;48.132;-1.210;2024-02-16T03:47:13;19.77;;;6.57;;
17790;SDS011;9019;48.132;-1.210;2024-02-16T03:49:42;17.60;;;7.33;;
17790;SDS011;9019;48.132;-1.210;2024-02-16T03:52:09;15.17;;;6.87;;
17790;SDS011;9019;48.132;-1.210;2024-02-16T03:54:36;15.03;;;6.40;;
17790;SDS011;9019;48.132;-1.210;2024-02-16T03:57:04;9.70;;;4.63;;
17790;SDS011;9019;48.132;-1.210;2024-02-16T03:59:34;7.00;;;3.53;;
17790;SDS011;9019;48.132;-1.210;2024-02-16T04:02:01;3.57;;;2.30;;
17790;SDS011;9019;48.132;-1.210;2024-02-16T04:04:29;2.67;;;2.10;;
17790;SDS011;9019;48.132;-1.210;2024-02-16T04:06:57;3.00;;;2.10;;
17790;SDS011;9019;48.132;-1.210;2024-02-16T04:09:25;3.53;;;1.70;;
17790;SDS011;9019;48.132;-1.210;2024-02-16T04:11:52;2.33;;;1.43;;
17790;SDS011;9019;48.132;-1.210;2024-02-16T04:14:19;2.13;;;1.40;;
17790;SDS011;9019;48.132;-1.210;2024-02-16T04:16:46;1.67;;;1.10;;
17790;SDS011;9019;48.132;-1.210;2024-02-16T04:19:14;1.23;;;1.07;;
17790;SDS011;9019;48.132;-1.210;2024-02-16T04:21:41;2.60;;;1.00;;
17790;SDS011;9019;48.132;-1.210;2024-02-16T04:24:10;1.47;;;1.00;;
17790;SDS011;9019;48.132;-1.210;2024-02-16T04:26:37;1.90;;;1.17;;
17790;SDS011;9019;48.132;-1.210;2024-02-16T04:29:04;1.63;;;1.00;;
17790;SDS011;9019;48.132;-1.210;2024-02-16T04:31:31;1.63;;;1.00;;
17790;SDS011;9019;48.132;-1.210;2024-02-16T04:33:58;1.70;;;1.10;;
17790;SDS011;9019;48.132;-1.210;2024-02-16T04:36:26;2.60;;;1.07;;
17790;SDS011;9019;48.132;-1.210;2024-02-16T04:38:53;3.50;;;1.00;;
17790;SDS011;9019;48.132;-1.210;2024-02-16T04:41:22;1.47;;;0.97;;
17790;SDS011;9019;48.132;-1.210;2024-02-16T04:43:49;2.80;;;1.10;;
17790;SDS011;9019;48.132;-1.210;2024-02-16T04:46:16;1.60;;;0.90;;
17790;SDS011;9019;48.132;-1.210;2024-02-16T04:48:44;1.20;;;0.90;;
17790;SDS011;9019;48.132;-1.210;2024-02-16T04:51:11;2.37;;;1.10;;
17790;SDS011;9019;48.132;-1.210;2024-02-16T04:53:38;1.40;;;1.00;;
17790;SDS011;9019;48.132;-1.210;2024-02-16T04:56:06;2.10;;;1.30;;
17790;SDS011;9019;48.132;-1.210;2024-02-16T04:58:34;1.93;;;1.30;;
17790;SDS011;9019;48.132;-1.210;2024-02-16T05:01:01;1.77;;;1.20;;
17790;SDS011;9019;48.132;-1.210;2024-02-16T05:03:30;4.47;;;1.50;;
17790;SDS011;9019;48.132;-1.210;2024-02-16T05:05:57;2.70;;;1.40;;
17790;SDS011;9019;48.132;-1.210;2024-02-16T05:08:25;2.70;;;1.60;;
17790;SDS011;9019;48.132;-1.210;2024-02-16T05:10:52;2.33;;;1.57;;
17790;SDS011;9019;48.132;-1.210;2024-02-16T05:13:19;3.43;;;1.90;;
17790;SDS011;9019;48.132;-1.210;2024-02-16T05:15:47;2.67;;;1.93;;
17790;SDS011;9019;48.132;-1.210;2024-02-16T05:18:14;5.60;;;2.30;;
17790;SDS011;9019;48.132;-1.210;2024-02-16T05:20:43;5.47;;;2.00;;
17790;SDS011;9019;48.132;-1.210;2024-02-16T05:23:10;4.30;;;2.00;;
17790;SDS011;9019;48.132;-1.210;2024-02-16T05:25:37;2.80;;;1.87;;
17790;SDS011;9019;48.132;-1.210;2024-02-16T05:28:04;3.77;;;1.80;;
17790;SDS011;9019;48.132;-1.210;2024-02-16T05:30:31;4.57;;;1.60;;
17790;SDS011;9019;48.132;-1.210;2024-02-16T05:33:00;3.57;;;1.97;;
17790;SDS011;9019;48.132;-1.210;2024-02-16T05:35:28;3.67;;;2.20;;
17790;SDS011;9019;48.132;-1.210;2024-02-16T05:37:58;5.20;;;2.43;;
17790;SDS011;9019;48.132;-1.210;2024-02-16T05:40:32;4.43;;;2.43;;
17790;SDS011;9019;48.132;-1.210;2024-02-16T05:43:10;4.97;;;2.80;;
17790;SDS011;9019;48.132;-1.210;2024-02-16T05:45:38;5.23;;;2.97;;
17790;SDS011;9019;48.132;-1.210;2024-02-16T05:48:08;7.87;;;3.10;;
17790;SDS011;9019;48.132;-1.210;2024-02-16T05:50:35;5.07;;;3.50;;
17790;SDS011;9019;48.132;-1.210;2024-02-16T05:53:03;8.67;;;3.47;;
17790;SDS011;9019;48.132;-1.210;2024-02-16T05:55:30;6.17;;;3.00;;
17790;SDS011;9019;48.132;-1.210;2024-02-16T05:57:57;5.57;;;3.07;;
17790;SDS011;9019;48.132;-1.210;2024-02-16T06:00:25;9.43;;;3.23;;
17790;SDS011;9019;48.132;-1.210;2024-02-16T06:02:52;8.57;;;3.40;;
17790;SDS011;9019;48.132;-1.210;2024-02-16T06:05:21;7.47;;;3.33;;
17790;SDS011;9019;48.132;-1.210;2024-02-16T06:07:48;8.93;;;3.17;;
17790;SDS011;9019;48.132;-1.210;2024-02-16T06:10:15;10.93;;;3.53;;
17790;SDS011;9019;48.132;-1.210;2024-02-16T06:12:43;11.07;;;3.53;;
17790;SDS011;9019;48.132;-1.210;2024-02-16T06:15:10;13.53;;;3.80;;
17790;SDS011;9019;48.132;-1.210;2024-02-16T06:17:37;8.43;;;3.50;;
17790;SDS011;9019;48.132;-1.210;2024-02-16T06:20:06;10.43;;;4.00;;
17790;SDS011;9019;48.132;-1.210;2024-02-16T06:22:36;9.97;;;3.63;;
17790;SDS011;9019;48.132;-1.210;2024-02-16T06:25:03;8.70;;;3.30;;
17790;SDS011;9019;48.132;-1.210;2024-02-16T06:27:30;9.23;;;3.20;;
17790;SDS011;9019;48.132;-1.210;2024-02-16T06:29:58;9.50;;;3.40;;
17790;SDS011;9019;48.132;-1.210;2024-02-16T06:32:25;13.60;;;3.20;;
17790;SDS011;9019;48.132;-1.210;2024-02-16T06:34:53;10.20;;;2.70;;
17790;SDS011;9019;48.132;-1.210;2024-02-16T06:37:20;10.47;;;2.37;;
17790;SDS011;9019;48.132;-1.210;2024-02-16T06:39:49;14.60;;;3.03;;
17790;SDS011;9019;48.132;-1.210;2024-02-16T06:42:16;7.70;;;2.20;;
17790;SDS011;9019;48.132;-1.210;2024-02-16T06:44:43;10.40;;;2.20;;
17790;SDS011;9019;48.132;-1.210;2024-02-16T06:47:10;8.40;;;2.10;;
17790;SDS011;9019;48.132;-1.210;2024-02-16T06:49:37;9.07;;;2.00;;
17790;SDS011;9019;48.132;-1.210;2024-02-16T06:52:05;8.10;;;2.17;;
17790;SDS011;9019;48.132;-1.210;2024-02-16T06:54:34;10.63;;;2.17;;
17790;SDS011;9019;48.132;-1.210;2024-02-16T06:57:03;7.63;;;2.03;;
17790;SDS011;9019;48.132;-1.210;2024-02-16T06:59:30;8.60;;;2.10;;
17790;SDS011;9019;48.132;-1.210;2024-02-16T07:01:57;8.33;;;2.07;;
17790;SDS011;9019;48.132;-1.210;2024-02-16T07:04:25;9.67;;;2.23;;
17790;SDS011;9019;48.132;-1.210;2024-02-16T07:06:52;9.10;;;2.23;;
17790;SDS011;9019;48.132;-1.210;2024-02-16T07:09:19;9.20;;;2.20;;
17790;SDS011;9019;48.132;-1.210;2024-02-16T07:11:47;9.50;;;2.00;;
17790;SDS011;9019;48.132;-1.210;2024-02-16T07:14:16;7.27;;;1.73;;
17790;SDS011;9019;48.132;-1.210;2024-02-16T07:16:43;13.37;;;2.40;;
17790;SDS011;9019;48.132;-1.210;2024-02-16T07:19:11;10.77;;;2.10;;
17790;SDS011;9019;48.132;-1.210;2024-02-16T07:21:38;10.77;;;2.07;;
17790;SDS011;9019;48.132;-1.210;2024-02-16T07:24:05;12.17;;;2.20;;
17790;SDS011;9019;48.132;-1.210;2024-02-16T07:26:34;11.53;;;2.43;;
17790;SDS011;9019;48.132;-1.210;2024-02-16T07:29:01;13.40;;;2.70;;
17790;SDS011;9019;48.132;-1.210;2024-02-16T07:31:32;12.57;;;2.37;;
17790;SDS011;9019;48.132;-1.210;2024-02-16T07:33:59;13.93;;;2.17;;
17790;SDS011;9019;48.132;-1.210;2024-02-16T07:36:26;11.63;;;2.40;;
17790;SDS011;9019;48.132;-1.210;2024-02-16T07:38:54;15.30;;;2.47;;
17790;SDS011;9019;48.132;-1.210;2024-02-16T07:41:21;9.13;;;1.80;;
17790;SDS011;9019;48.132;-1.210;2024-02-16T07:43:48;12.70;;;2.23;;
17790;SDS011;9019;48.132;-1.210;2024-02-16T07:46:16;11.90;;;2.23;;
17790;SDS011;9019;48.132;-1.210;2024-02-16T07:48:44;11.63;;;1.93;;
17790;SDS011;9019;48.132;-1.210;2024-02-16T07:51:12;11.27;;;1.90;;
17790;SDS011;9019;48.132;-1.210;2024-02-16T07:53:39;10.60;;;1.80;;
17790;SDS011;9019;48.132;-1.210;2024-02-16T07:56:07;14.93;;;1.90;;
17790;SDS011;9019;48.132;-1.210;2024-02-16T07:58:34;9.50;;;1.90;;
17790;SDS011;9019;48.132;-1.210;2024-02-16T08:01:02;15.87;;;1.87;;
17790;SDS011;9019;48.132;-1.210;2024-02-16T08:03:28;11.60;;;1.70;;
17790;SDS011;9019;48.132;-1.210;2024-02-16T08:05:57;11.53;;;1.97;;
17790;SDS011;9019;48.132;-1.210;2024-02-16T08:08:24;11.03;;;1.50;;
17790;SDS011;9019;48.132;-1.210;2024-02-16T08:10:51;8.90;;;1.67;;
17790;SDS011;9019;48.132;-1.210;2024-02-16T08:13:18;9.13;;;1.53;;
17790;SDS011;9019;48.132;-1.210;2024-02-16T08:15:46;7.43;;;1.37;;
17790;SDS011;9019;48.132;-1.210;2024-02-16T08:18:13;11.83;;;1.90;;
17790;SDS011;9019;48.132;-1.210;2024-02-16T08:20:42;11.17;;;2.27;;
17790;SDS011;9019;48.132;-1.210;2024-02-16T08:23:11;9.07;;;1.40;;
17790;SDS011;9019;48.132;-1.210;2024-02-16T08:25:38;14.17;;;1.90;;
17790;SDS011;9019;48.132;-1.210;2024-02-16T08:28:06;11.53;;;1.73;;
17790;SDS011;9019;48.132;-1.210;2024-02-16T08:30:33;10.13;;;1.75;;
17790;SDS011;9019;48.132;-1.210;2024-02-16T08:33:06;10.75;;;1.77;;
17790;SDS011;9019;48.132;-1.210;2024-02-16T08:35:33;10.90;;;1.77;;
17790;SDS011;9019;48.132;-1.210;2024-02-16T08:38:00;11.32;;;2.35;;
17790;SDS011;9019;48.132;-1.210;2024-02-16T08:40:28;10.45;;;1.67;;
17790;SDS011;9019;48.132;-1.210;2024-02-16T08:42:56;10.57;;;1.70;;
17790;SDS011;9019;48.132;-1.210;2024-02-16T08:45:24;6.85;;;1.73;;
17790;SDS011;9019;48.132;-1.210;2024-02-16T08:47:51;10.32;;;1.73;;
17790;SDS011;9019;48.132;-1.210;2024-02-16T08:50:19;9.20;;;1.85;;
17790;SDS011;9019;48.132;-1.210;2024-02-16T08:52:46;13.63;;;2.38;;
17790;SDS011;9019;48.132;-1.210;2024-02-16T08:55:13;9.43;;;1.67;;
17790;SDS011;9019;48.132;-1.210;2024-02-16T08:57:42;9.73;;;1.50;;
17790;SDS011;9019;48.132;-1.210;2024-02-16T09:00:10;12.98;;;1.90;;
17790;SDS011;9019;48.132;-1.210;2024-02-16T09:02:38;14.02;;;1.90;;
17790;SDS011;9019;48.132;-1.210;2024-02-16T09:05:05;12.55;;;2.08;;
17790;SDS011;9019;48.132;-1.210;2024-02-16T09:07:34;12.68;;;2.50;;
17790;SDS011;9019;48.132;-1.210;2024-02-16T09:10:02;11.77;;;2.55;;
17790;SDS011;9019;48.132;-1.210;2024-02-16T09:12:29;13.02;;;2.28;;
17790;SDS011;9019;48.132;-1.210;2024-02-16T09:14:58;13.02;;;2.28;;
17790;SDS011;9019;48.132;-1.210;2024-02-16T09:17:25;15.02;;;2.30;;
17790;SDS011;9019;48.132;-1.210;2024-02-16T09:19:52;11.55;;;2.22;;
17790;SDS011;9019;48.132;-1.210;2024-02-16T09:22:19;10.65;;;2.38;;
17790;SDS011;9019;48.132;-1.210;2024-02-16T09:24:47;18.02;;;2.50;;
17790;SDS011;9019;48.132;-1.210;2024-02-16T09:27:14;11.00;;;2.70;;
17790;SDS011;9019;48.132;-1.210;2024-02-16T09:29:41;12.02;;;2.45;;
17790;SDS011;9019;48.132;-1.210;2024-02-16T09:32:10;8.73;;;2.00;;
17790;SDS011;9019;48.132;-1.210;2024-02-16T09:34:37;12.73;;;2.47;;
17790;SDS011;9019;48.132;-1.210;2024-02-16T09:37:05;12.13;;;2.65;;
17790;SDS011;9019;48.132;-1.210;2024-02-16T09:39:32;10.15;;;2.00;;
17790;SDS011;9019;48.132;-1.210;2024-02-16T09:41:59;11.38;;;2.35;;
17790;SDS011;9019;48.132;-1.210;2024-02-16T09:44:27;11.30;;;2.15;;
17790;SDS011;9019;48.132;-1.210;2024-02-16T09:46:55;9.52;;;2.33;;
17790;SDS011;9019;48.132;-1.210;2024-02-16T09:49:24;9.93;;;2.15;;
17790;SDS011;9019;48.132;-1.210;2024-02-16T09:51:51;10.15;;;1.70;;
17790;SDS011;9019;48.132;-1.210;2024-02-16T09:54:20;10.65;;;1.98;;
17790;SDS011;9019;48.132;-1.210;2024-02-16T09:56:47;8.40;;;1.75;;
17790;SDS011;9019;48.132;-1.210;2024-02-16T09:59:14;12.55;;;2.22;;
17790;SDS011;9019;48.132;-1.210;2024-02-16T10:01:41;8.90;;;2.00;;
17790;SDS011;9019;48.132;-1.210;2024-02-16T10:04:09;9.32;;;1.40;;
17790;SDS011;9019;48.132;-1.210;2024-02-16T10:06:46;13.13;;;2.40;;
17790;SDS011;9019;48.132;-1.210;2024-02-16T10:09:22;12.65;;;2.05;;
17790;SDS011;9019;48.132;-1.210;2024-02-16T10:11:49;10.32;;;2.00;;
17790;SDS011;9019;48.132;-1.210;2024-02-16T10:14:17;7.28;;;1.60;;
17790;SDS011;9019;48.132;-1.210;2024-02-16T10:16:44;8.55;;;1.77;;
17790;SDS011;9019;48.132;-1.210;2024-02-16T10:19:12;9.77;;;1.85;;
17790;SDS011;9019;48.132;-1.210;2024-02-16T10:21:39;8.43;;;2.05;;
17790;SDS011;9019;48.132;-1.210;2024-02-16T10:24:09;11.05;;;1.70;;
17790;SDS011;9019;48.132;-1.210;2024-02-16T10:26:37;6.32;;;1.77;;
17790;SDS011;9019;48.132;-1.210;2024-02-16T10:29:05;11.88;;;2.20;;
17790;SDS011;9019;48.132;-1.210;2024-02-16T10:31:33;11.57;;;2.42;;
17790;SDS011;9019;48.132;-1.210;2024-02-16T10:34:01;10.77;;;1.90;;
17790;SDS011;9019;48.132;-1.210;2024-02-16T10:36:31;11.60;;;2.08;;
17790;SDS011;9019;48.132;-1.210;2024-02-16T10:38:58;12.85;;;2.00;;
17790;SDS011;9019;48.132;-1.210;2024-02-16T10:41:33;11.13;;;2.08;;
17790;SDS011;9019;48.132;-1.210;2024-02-16T10:44:01;11.52;;;2.72;;
17790;SDS011;9019;48.132;-1.210;2024-02-16T10:46:28;10.63;;;1.75;;
17790;SDS011;9019;48.132;-1.210;2024-02-16T10:48:55;9.52;;;1.90;;
17790;SDS011;9019;48.132;-1.210;2024-02-16T10:51:23;10.23;;;1.98;;
17790;SDS011;9019;48.132;-1.210;2024-02-16T10:53:51;9.95;;;1.73;;
17790;SDS011;9019;48.132;-1.210;2024-02-16T10:56:26;14.40;;;2.08;;
17790;SDS011;9019;48.132;-1.210;2024-02-16T10:58:55;11.18;;;1.95;;
17790;SDS011;9019;48.132;-1.210;2024-02-16T11:01:22;9.40;;;1.75;;
17790;SDS011;9019;48.132;-1.210;2024-02-16T11:03:49;7.45;;;1.60;;
17790;SDS011;9019;48.132;-1.210;2024-02-16T11:06:27;8.82;;;1.92;;
17790;SDS011;9019;48.132;-1.210;2024-02-16T11:08:54;7.43;;;1.52;;
17790;SDS011;9019;48.132;-1.210;2024-02-16T11:11:25;6.43;;;1.50;;
17790;SDS011;9019;48.132;-1.210;2024-02-16T11:13:55;6.07;;;1.35;;
17790;SDS011;9019;48.132;-1.210;2024-02-16T11:16:22;7.60;;;1.20;;
17790;SDS011;9019;48.132;-1.210;2024-02-16T11:18:50;5.55;;;1.30;;
17790;SDS011;9019;48.132;-1.210;2024-02-16T11:21:17;7.55;;;1.10;;
17790;SDS011;9019;48.132;-1.210;2024-02-16T11:23:45;8.95;;;1.30;;
17790;SDS011;9019;48.132;-1.210;2024-02-16T11:26:13;6.78;;;1.45;;
17790;SDS011;9019;48.132;-1.210;2024-02-16T11:28:41;9.68;;;1.60;;
17790;SDS011;9019;48.132;-1.210;2024-02-16T11:31:10;6.15;;;1.23;;
17790;SDS011;9019;48.132;-1.210;2024-02-16T11:33:42;4.13;;;1.00;;
17790;SDS011;9019;48.132;-1.210;2024-02-16T11:36:10;5.93;;;1.42;;
17790;SDS011;9019;48.132;-1.210;2024-02-16T11:38:37;6.38;;;1.40;;
17790;SDS011;9019;48.132;-1.210;2024-02-16T11:41:05;6.15;;;1.80;;
17790;SDS011;9019;48.132;-1.210;2024-02-16T11:43:32;6.70;;;1.60;;
17790;SDS011;9019;48.132;-1.210;2024-02-16T11:46:11;3.35;;;1.05;;
17790;SDS011;9019;48.132;-1.210;2024-02-16T11:48:39;6.78;;;1.42;;
17790;SDS011;9019;48.132;-1.210;2024-02-16T11:51:06;5.03;;;1.20;;
17790;SDS011;9019;48.132;-1.210;2024-02-16T11:53:33;5.63;;;1.15;;
17790;SDS011;9019;48.132;-1.210;2024-02-16T11:56:01;8.00;;;1.70;;
17790;SDS011;9019;48.132;-1.210;2024-02-16T11:58:28;4.03;;;0.95;;
17790;SDS011;9019;48.132;-1.210;2024-02-16T12:00:57;6.25;;;1.50;;
17790;SDS011;9019;48.132;-1.210;2024-02-16T12:03:26;6.90;;;1.40;;
17790;SDS011;9019;48.132;-1.210;2024-02-16T12:05:54;5.82;;;1.30;;
17790;SDS011;9019;48.132;-1.210;2024-02-16T12:08:21;9.20;;;1.90;;
17790;SDS011;9019;48.132;-1.210;2024-02-16T12:10:49;8.35;;;1.67;;
17790;SDS011;9019;48.132;-1.210;2024-02-16T12:13:16;8.73;;;1.90;;
17790;SDS011;9019;48.132;-1.210;2024-02-16T12:15:44;8.02;;;2.10;;
17790;SDS011;9019;48.132;-1.210;2024-02-16T12:18:18;8.65;;;1.75;;
17790;SDS011;9019;48.132;-1.210;2024-02-16T12:20:57;6.05;;;1.45;;
17790;SDS011;9019;48.132;-1.210;2024-02-16T12:23:24;8.05;;;1.42;;
17790;SDS011;9019;48.132;-1.210;2024-02-16T12:25:52;8.02;;;1.38;;
17790;SDS011;9019;48.132;-1.210;2024-02-16T12:28:19;7.70;;;1.77;;
17790;SDS011;9019;48.132;-1.210;2024-02-16T12:30:47;8.35;;;1.40;;
17790;SDS011;9019;48.132;-1.210;2024-02-16T12:33:14;8.00;;;1.55;;
17790;SDS011;9019;48.132;-1.210;2024-02-16T12:35:41;7.35;;;1.27;;
17790;SDS011;9019;48.132;-1.210;2024-02-16T12:38:10;5.65;;;1.42;;
17790;SDS011;9019;48.132;-1.210;2024-02-16T12:40:38;10.50;;;2.38;;
17790;SDS011;9019;48.132;-1.210;2024-02-16T12:43:05;10.75;;;1.80;;
17790;SDS011;9019;48.132;-1.210;2024-02-16T12:45:36;6.20;;;1.70;;
17790;SDS011;9019;48.132;-1.210;2024-02-16T12:48:03;10.07;;;1.60;;
17790;SDS011;9019;48.132;-1.210;2024-02-16T12:50:31;13.50;;;2.10;;
17790;SDS011;9019;48.132;-1.210;2024-02-16T12:52:58;9.55;;;1.58;;
17790;SDS011;9019;48.132;-1.210;2024-02-16T12:55:27;7.25;;;1.70;;
17790;SDS011;9019;48.132;-1.210;2024-02-16T12:57:55;11.30;;;2.05;;
17790;SDS011;9019;48.132;-1.210;2024-02-16T13:00:22;8.27;;;1.50;;
17790;SDS011;9019;48.132;-1.210;2024-02-16T13:02:50;8.27;;;1.80;;
17790;SDS011;9019;48.132;-1.210;2024-02-16T13:05:17;10.35;;;1.63;;
17790;SDS011;9019;48.132;-1.210;2024-02-16T13:07:44;9.13;;;1.98;;
17790;SDS011;9019;48.132;-1.210;2024-02-16T13:10:11;7.80;;;1.70;;
17790;SDS011;9019;48.132;-1.210;2024-02-16T13:12:40;10.32;;;1.80;;
17790;SDS011;9019;48.132;-1.210;2024-02-16T13:15:08;6.60;;;1.73;;
17790;SDS011;9019;48.132;-1.210;2024-02-16T13:17:35;8.65;;;1.83;;
17790;SDS011;9019;48.132;-1.210;2024-02-16T13:20:03;10.70;;;1.80;;
17790;SDS011;9019;48.132;-1.210;2024-02-16T13:22:34;9.53;;;1.40;;
17790;SDS011;9019;48.132;-1.210;2024-02-16T13:25:02;10.10;;;2.10;;
17790;SDS011;9019;48.132;-1.210;2024-02-16T13:27:30;12.40;;;2.07;;
17790;SDS011;9019;48.132;-1.210;2024-02-16T13:29:59;11.23;;;1.87;;
17790;SDS011;9019;48.132;-1.210;2024-02-16T13:32:26;11.10;;;1.73;;
17790;SDS011;9019;48.132;-1.210;2024-02-16T13:34:53;5.90;;;1.33;;
17790;SDS011;9019;48.132;-1.210;2024-02-16T13:37:20;9.73;;;1.80;;
17790;SDS011;9019;48.132;-1.210;2024-02-16T13:39:47;11.90;;;1.73;;
17790;SDS011;9019;48.132;-1.210;2024-02-16T13:42:16;8.20;;;1.50;;
17790;SDS011;9019;48.132;-1.210;2024-02-16T13:44:44;15.57;;;2.00;;
17790;SDS011;9019;48.132;-1.210;2024-02-16T13:47:14;6.87;;;1.40;;
17790;SDS011;9019;48.132;-1.210;2024-02-16T13:49:41;11.03;;;1.40;;
17790;SDS011;9019;48.132;-1.210;2024-02-16T13:52:08;8.70;;;1.47;;
17790;SDS011;9019;48.132;-1.210;2024-02-16T13:54:35;6.90;;;1.67;;
17790;SDS011;9019;48.132;-1.210;2024-02-16T13:57:03;6.70;;;1.30;;
17790;SDS011;9019;48.132;-1.210;2024-02-16T13:59:30;5.43;;;1.30;;
17790;SDS011;9019;48.132;-1.210;2024-02-16T14:01:58;5.70;;;1.30;;
17790;SDS011;9019;48.132;-1.210;2024-02-16T14:04:27;8.93;;;1.60;;
17790;SDS011;9019;48.132;-1.210;2024-02-16T14:06:54;10.37;;;1.77;;
17790;SDS011;9019;48.132;-1.210;2024-02-16T14:09:22;7.80;;;1.60;;
17790;SDS011;9019;48.132;-1.210;2024-02-16T14:11:51;6.63;;;1.10;;
17790;SDS011;9019;48.132;-1.210;2024-02-16T14:14:18;5.33;;;1.03;;
17790;SDS011;9019;48.132;-1.210;2024-02-16T14:16:46;7.23;;;1.30;;
17790;SDS011;9019;48.132;-1.210;2024-02-16T14:19:13;6.13;;;1.40;;
17790;SDS011;9019;48.132;-1.210;2024-02-16T14:21:41;7.63;;;1.20;;
17790;SDS011;9019;48.132;-1.210;2024-02-16T14:24:10;9.37;;;1.20;;
17790;SDS011;9019;48.132;-1.210;2024-02-16T14:26:37;5.27;;;1.03;;
17790;SDS011;9019;48.132;-1.210;2024-02-16T14:29:05;10.67;;;1.40;;
17790;SDS011;9019;48.132;-1.210;2024-02-16T14:31:32;8.63;;;1.63;;
17790;SDS011;9019;48.132;-1.210;2024-02-16T14:33:59;9.83;;;1.93;;
17790;SDS011;9019;48.132;-1.210;2024-02-16T14:36:26;7.63;;;1.37;;
17790;SDS011;9019;48.132;-1.210;2024-02-16T14:38:55;5.63;;;1.30;;
17790;SDS011;9019;48.132;-1.210;2024-02-16T14:41:22;7.00;;;1.10;;
17790;SDS011;9019;48.132;-1.210;2024-02-16T14:43:49;7.83;;;1.27;;